Time;durP1;ratioP1;P1;durP2;ratioP2;P2;SDS_P1;SDS_P2;PMS_P1;PMS_P2;Temp;Humidity;BMP_temperature;BMP_pressure;BME280_temperature;BME280_humidity;BME280_pressure;Samples;Min_cycle;Max_cycle;Signal;HPM_P1;HPM_P2
2021/01/22 00:01:46;;;;;;;14.65;2.50;;;3.00;99.90;;;;;;6216360;23;20044;-93
2021/01/22 00:04:12;;;;;;;11.13;2.35;;;3.00;99.90;;;;;;6216682;23;20008;-95
2021/01/22 00:06:37;;;;;;;16.75;3.85;;;3.10;99.90;;;;;;6215782;23;20008;-95
2021/01/22 00:09:04;;;;;;;14.35;2.00;;;3.00;99.90;;;;;;6216275;23;20016;-94
2021/01/22 00:11:29;;;;;;;13.30;2.47;;;3.00;99.90;;;;;;6216099;23;20120;-94
2021/01/22 00:13:55;;;;;;;6.20;1.98;;;3.00;99.90;;;;;;6216429;23;20004;-94
2021/01/22 00:16:21;;;;;;;11.30;1.63;;;3.00;99.90;;;;;;6216346;23;20063;-94
2021/01/22 00:18:46;;;;;;;14.73;2.10;;;3.10;99.90;;;;;;6216002;23;20012;-93
2021/01/22 00:21:12;;;;;;;12.57;2.08;;;3.00;99.90;;;;;;6215990;23;20007;-94
2021/01/22 00:23:38;;;;;;;7.75;2.13;;;3.00;99.90;;;;;;6216171;23;20086;-94
2021/01/22 00:26:05;;;;;;;11.32;2.10;;;3.10;99.90;;;;;;6216490;23;20032;-96
2021/01/22 00:28:31;;;;;;;15.07;2.15;;;3.10;99.90;;;;;;6215765;23;20067;-95
2021/01/22 00:30:56;;;;;;;11.40;1.98;;;3.00;99.90;;;;;;6216221;23;20005;-94
2021/01/22 00:33:22;;;;;;;8.13;1.83;;;3.00;99.90;;;;;;6216095;23;20009;-94
2021/01/22 00:35:48;;;;;;;13.60;3.28;;;3.00;99.90;;;;;;6216113;23;20344;-93
2021/01/22 00:38:13;;;;;;;7.70;2.17;;;3.00;99.90;;;;;;6215914;23;20336;-95
2021/01/22 00:40:39;;;;;;;11.25;2.42;;;3.10;99.90;;;;;;6215425;23;20012;-93
2021/01/22 00:43:04;;;;;;;7.15;1.98;;;3.00;99.90;;;;;;6215592;23;20157;-94
2021/01/22 00:45:30;;;;;;;9.60;2.70;;;3.00;99.90;;;;;;6214996;23;20021;-94
2021/01/22 00:47:56;;;;;;;10.27;2.10;;;3.00;99.90;;;;;;6215705;23;20008;-95
2021/01/22 00:50:22;;;;;;;14.10;2.13;;;3.00;99.90;;;;;;6216195;23;20425;-95
2021/01/22 00:52:48;;;;;;;12.45;2.55;;;3.00;99.90;;;;;;6215836;23;20007;-95
2021/01/22 00:55:14;;;;;;;20.52;3.20;;;3.00;99.90;;;;;;6215786;23;20455;-95
2021/01/22 00:57:40;;;;;;;9.15;2.22;;;3.00;99.90;;;;;;6215810;23;20005;-96
2021/01/22 01:00:09;;;;;;;18.55;2.80;;;3.00;99.90;;;;;;6215810;23;20040;-95
2021/01/22 01:02:35;;;;;;;9.63;2.35;;;2.90;99.90;;;;;;6215747;23;20100;-95
2021/01/22 01:05:00;;;;;;;15.32;3.33;;;2.90;99.90;;;;;;6215191;23;20001;-95
2021/01/22 01:07:26;;;;;;;13.80;2.40;;;2.90;99.90;;;;;;6215553;23;20064;-95
2021/01/22 01:09:52;;;;;;;14.15;2.75;;;2.90;99.90;;;;;;6216893;23;20001;-96
2021/01/22 01:12:17;;;;;;;9.40;2.35;;;2.90;99.90;;;;;;6216874;23;20032;-94
2021/01/22 01:14:43;;;;;;;15.88;2.25;;;2.90;99.90;;;;;;6215685;23;20484;-94
2021/01/22 01:17:09;;;;;;;13.52;3.10;;;2.90;99.90;;;;;;6213756;23;20008;-93
2021/01/22 01:19:34;;;;;;;17.23;2.60;;;2.90;99.90;;;;;;6215627;23;20011;-93
2021/01/22 01:22:00;;;;;;;14.55;2.63;;;2.90;99.90;;;;;;6215947;23;20611;-94
2021/01/22 01:24:26;;;;;;;13.93;2.90;;;2.90;99.90;;;;;;6216322;23;20011;-96
2021/01/22 01:26:51;;;;;;;13.93;2.50;;;2.90;99.90;;;;;;6215799;23;20024;-93
2021/01/22 01:29:17;;;;;;;13.43;2.88;;;3.00;99.90;;;;;;6215975;23;20017;-96
2021/01/22 01:31:43;;;;;;;11.15;2.50;;;2.90;99.90;;;;;;6223663;23;20008;-95
2021/01/22 01:34:09;;;;;;;12.43;2.78;;;3.00;99.90;;;;;;6220792;23;20008;-95
2021/01/22 01:36:35;;;;;;;16.20;2.45;;;3.00;99.90;;;;;;6218388;23;20011;-93
2021/01/22 01:39:01;;;;;;;10.50;2.47;;;3.00;99.90;;;;;;6217521;23;20277;-95
2021/01/22 01:41:27;;;;;;;13.15;2.92;;;3.00;99.90;;;;;;6216057;23;20512;-94
2021/01/22 01:43:52;;;;;;;12.95;2.38;;;3.00;99.90;;;;;;6216650;23;20008;-95
2021/01/22 01:46:18;;;;;;;13.48;2.90;;;3.00;99.90;;;;;;6215898;23;20012;-95
2021/01/22 01:48:44;;;;;;;14.90;3.00;;;3.00;99.90;;;;;;6216769;23;20039;-96
2021/01/22 01:51:10;;;;;;;10.15;2.35;;;3.00;99.90;;;;;;6216338;23;20048;-94
2021/01/22 01:53:35;;;;;;;16.17;3.58;;;3.00;99.90;;;;;;6215566;23;20015;-94
2021/01/22 01:56:01;;;;;;;9.30;3.05;;;3.00;99.90;;;;;;6215903;23;20007;-94
2021/01/22 01:58:27;;;;;;;15.45;2.72;;;3.00;99.90;;;;;;6216003;23;20008;-95
2021/01/22 02:00:53;;;;;;;14.15;2.70;;;3.00;99.90;;;;;;6217086;23;20001;-96
2021/01/22 02:03:20;;;;;;;18.08;2.67;;;3.00;99.90;;;;;;6216354;23;20463;-96
2021/01/22 02:05:47;;;;;;;11.32;4.00;;;3.00;99.90;;;;;;6216798;23;20005;-94
2021/01/22 02:08:15;;;;;;;21.95;4.47;;;3.00;99.90;;;;;;6217885;23;20470;-95
2021/01/22 02:10:41;;;;;;;14.10;4.38;;;3.00;99.90;;;;;;6217014;23;20083;-92
2021/01/22 02:13:08;;;;;;;11.18;3.20;;;3.00;99.90;;;;;;6217833;23;20015;-94
2021/01/22 02:15:34;;;;;;;18.42;3.42;;;3.00;99.90;;;;;;6217216;23;20000;-94
2021/01/22 02:18:00;;;;;;;7.88;2.45;;;2.90;99.90;;;;;;6217147;23;20007;-94
2021/01/22 02:21:04;;;;;;;12.23;3.08;;;3.00;99.90;;;;;;6217784;23;20043;-94
2021/01/22 02:23:34;;;;;;;10.98;2.75;;;3.00;99.90;;;;;;6183985;23;20074;-95
2021/01/22 02:26:29;;;;;;;13.00;2.83;;;3.00;99.90;;;;;;6216830;23;20009;-94
2021/01/22 02:28:59;;;;;;;13.07;3.10;;;3.00;99.90;;;;;;6195619;23;20040;-96
2021/01/22 02:31:26;;;;;;;11.05;3.17;;;3.00;99.90;;;;;;6219905;23;19997;-95
2021/01/22 02:33:58;;;;;;;9.98;3.58;;;3.00;99.90;;;;;;6218046;23;20373;-95
2021/01/22 02:36:25;;;;;;;6.22;2.40;;;3.00;99.90;;;;;;6218851;23;20001;-96
2021/01/22 02:38:53;;;;;;;11.02;3.05;;;3.10;99.90;;;;;;6217420;23;20027;-95
2021/01/22 02:41:20;;;;;;;18.02;4.10;;;3.00;99.90;;;;;;6218851;23;20034;-96
2021/01/22 02:43:52;;;;;;;17.13;4.47;;;3.00;99.90;;;;;;6218642;23;20001;-96
2021/01/22 02:46:18;;;;;;;15.80;4.75;;;3.00;99.90;;;;;;6219576;23;20009;-96
2021/01/22 02:48:45;;;;;;;11.90;4.20;;;3.00;99.90;;;;;;6219566;23;20020;-95
2021/01/22 02:51:15;;;;;;;17.17;3.92;;;3.00;99.90;;;;;;6220774;23;20036;-95
2021/01/22 02:53:41;;;;;;;13.40;2.83;;;3.00;99.90;;;;;;6223725;23;20070;-95
2021/01/22 02:56:33;;;;;;;18.25;3.20;;;3.00;99.90;;;;;;6232174;23;20068;-95
2021/01/22 02:59:20;;;;;;;11.10;2.65;;;3.00;99.90;;;;;;6220029;23;20060;-95
2021/01/22 03:02:17;;;;;;;21.00;3.53;;;3.00;99.90;;;;;;6228839;23;20012;-94
2021/01/22 03:04:43;;;;;;;8.63;3.08;;;2.90;99.90;;;;;;6214433;23;20000;-94
2021/01/22 03:07:20;;;;;;;15.98;4.00;;;3.00;99.90;;;;;;6217957;23;20047;-95
2021/01/22 03:09:47;;;;;;;15.93;2.83;;;3.00;99.90;;;;;;6216952;23;20103;-94
2021/01/22 03:12:15;;;;;;;12.77;3.30;;;2.90;99.90;;;;;;6216977;23;20004;-94
2021/01/22 03:14:41;;;;;;;12.75;3.20;;;2.90;99.90;;;;;;6217475;23;20036;-95
2021/01/22 03:17:08;;;;;;;11.38;3.40;;;2.90;99.90;;;;;;6218306;23;20011;-96
2021/01/22 03:19:45;;;;;;;12.85;3.55;;;2.90;99.90;;;;;;6218063;23;20097;-94
2021/01/22 03:22:12;;;;;;;9.55;2.10;;;2.90;99.90;;;;;;6219245;23;20013;-95
2021/01/22 03:24:37;;;;;;;3.50;1.65;;;2.90;99.90;;;;;;6217491;23;20004;-93
2021/01/22 03:27:03;;;;;;;6.40;1.90;;;2.90;99.90;;;;;;6216380;23;20035;-94
2021/01/22 03:29:29;;;;;;;9.63;1.80;;;2.80;99.90;;;;;;6216303;23;20008;-94
2021/01/22 03:31:57;;;;;;;6.22;1.60;;;2.80;99.90;;;;;;6216238;23;20005;-95
2021/01/22 03:34:26;;;;;;;9.75;1.08;;;2.80;99.90;;;;;;6216604;23;20011;-92
2021/01/22 03:36:56;;;;;;;8.18;1.25;;;2.80;99.90;;;;;;6215654;23;20005;-96
2021/01/22 03:39:22;;;;;;;6.63;1.60;;;2.70;99.90;;;;;;6216029;23;20439;-95
2021/01/22 03:41:49;;;;;;;4.60;2.00;;;2.70;99.90;;;;;;6216320;23;20424;-95
2021/01/22 03:44:16;;;;;;;5.43;1.27;;;2.60;99.90;;;;;;6215927;23;20088;-94
2021/01/22 03:46:42;;;;;;;6.22;1.13;;;2.60;99.90;;;;;;6216186;23;20502;-95
2021/01/22 03:49:08;;;;;;;5.47;1.17;;;2.60;99.90;;;;;;6216643;23;20008;-96
2021/01/22 03:51:34;;;;;;;6.93;1.58;;;2.50;99.90;;;;;;6215939;23;20055;-95
2021/01/22 03:53:59;;;;;;;11.45;1.70;;;2.60;99.90;;;;;;6216185;23;20375;-94
2021/01/22 03:56:25;;;;;;;9.60;1.48;;;2.60;99.90;;;;;;6215978;23;20028;-95
2021/01/22 03:58:51;;;;;;;9.38;1.83;;;2.50;99.90;;;;;;6215997;23;20015;-95
2021/01/22 04:01:19;;;;;;;8.90;1.58;;;2.50;99.90;;;;;;6215919;23;20344;-94
2021/01/22 04:03:45;;;;;;;16.83;2.70;;;2.50;99.90;;;;;;6216153;23;20084;-94
2021/01/22 04:06:11;;;;;;;11.75;1.88;;;2.50;99.90;;;;;;6216149;23;20032;-93
2021/01/22 04:08:36;;;;;;;11.82;1.90;;;2.50;99.90;;;;;;6216557;23;20016;-95
2021/01/22 04:11:02;;;;;;;8.65;1.98;;;2.50;99.90;;;;;;6215796;23;20008;-95
2021/01/22 04:13:28;;;;;;;7.97;1.98;;;2.50;99.90;;;;;;6215981;23;20011;-94
2021/01/22 04:15:54;;;;;;;7.85;1.98;;;2.50;99.90;;;;;;6215341;23;20009;-95
2021/01/22 04:18:20;;;;;;;14.65;3.20;;;2.50;99.90;;;;;;6215646;23;20475;-94
2021/01/22 04:20:45;;;;;;;4.80;1.13;;;2.50;99.90;;;;;;6215666;23;20001;-95
2021/01/22 04:23:11;;;;;;;9.70;1.88;;;2.50;99.90;;;;;;6216105;23;20009;-94
2021/01/22 04:25:37;;;;;;;5.53;1.83;;;2.60;99.90;;;;;;6215861;23;20004;-93
2021/01/22 04:28:02;;;;;;;13.93;2.78;;;2.60;99.90;;;;;;6216061;23;20004;-95
2021/01/22 04:30:28;;;;;;;10.20;2.60;;;2.60;99.90;;;;;;6215966;23;20059;-95
2021/01/22 04:32:54;;;;;;;8.48;2.25;;;2.60;99.90;;;;;;6216646;23;20036;-95
2021/01/22 04:35:19;;;;;;;13.68;2.58;;;2.60;99.90;;;;;;6215765;23;20407;-95
2021/01/22 04:37:45;;;;;;;10.20;2.65;;;2.60;99.90;;;;;;6215701;23;20051;-95
2021/01/22 04:40:11;;;;;;;15.93;4.28;;;2.60;99.90;;;;;;6215255;23;20008;-95
2021/01/22 04:42:41;;;;;;;18.92;3.55;;;2.70;99.90;;;;;;6215815;23;20012;-95
2021/01/22 04:45:08;;;;;;;21.50;5.23;;;2.70;99.90;;;;;;6217999;23;20107;-95
2021/01/22 04:47:34;;;;;;;22.77;5.18;;;2.70;99.90;;;;;;6215435;23;20039;-94
2021/01/22 04:50:04;;;;;;;22.08;5.63;;;2.70;99.90;;;;;;6215778;23;20431;-96
2021/01/22 04:52:32;;;;;;;16.07;4.83;;;2.70;99.90;;;;;;6214602;23;20000;-94
2021/01/22 04:55:00;;;;;;;13.90;5.57;;;2.70;99.90;;;;;;6214567;23;20243;-94
2021/01/22 04:57:29;;;;;;;17.58;4.85;;;2.80;99.90;;;;;;6214553;23;20440;-96
2021/01/22 04:59:56;;;;;;;14.77;4.93;;;2.70;99.90;;;;;;6214640;23;20001;-94
2021/01/22 05:02:22;;;;;;;18.23;5.55;;;2.70;99.90;;;;;;6215131;23;20005;-96
2021/01/22 05:04:50;;;;;;;10.57;4.45;;;2.70;99.90;;;;;;6214432;23;20063;-93
2021/01/22 05:07:20;;;;;;;14.57;4.85;;;2.70;99.90;;;;;;6215109;23;20012;-96
2021/01/22 05:09:45;;;;;;;18.88;4.90;;;2.70;99.90;;;;;;6214605;23;20063;-96
2021/01/22 05:12:11;;;;;;;18.88;7.07;;;2.70;99.90;;;;;;6215377;23;20340;-95
2021/01/22 05:14:37;;;;;;;16.77;5.05;;;2.70;99.90;;;;;;6215220;23;20034;-95
2021/01/22 05:17:08;;;;;;;13.52;5.95;;;2.70;99.90;;;;;;6214533;23;20011;-95
2021/01/22 05:19:35;;;;;;;18.63;5.65;;;2.80;99.90;;;;;;6215080;23;20043;-95
2021/01/22 05:22:02;;;;;;;6.35;3.95;;;2.80;99.90;;;;;;6214733;23;20017;-94
2021/01/22 05:24:29;;;;;;;19.60;5.72;;;2.80;99.90;;;;;;6213368;23;20004;-95
2021/01/22 05:27:04;;;;;;;13.45;4.60;;;2.80;99.90;;;;;;6214298;23;20436;-94
2021/01/22 05:29:31;;;;;;;16.98;5.10;;;2.80;99.90;;;;;;6214014;23;20028;-94
2021/01/22 05:31:57;;;;;;;12.85;5.05;;;2.70;99.90;;;;;;6213830;23;20031;-94
2021/01/22 05:34:24;;;;;;;16.33;5.85;;;2.70;99.90;;;;;;6214119;23;20009;-94
2021/01/22 05:36:50;;;;;;;18.85;4.85;;;2.70;99.90;;;;;;6214184;23;20000;-93
2021/01/22 05:39:22;;;;;;;9.43;3.55;;;2.70;99.90;;;;;;6213778;23;20008;-93
2021/01/22 05:41:53;;;;;;;15.13;4.10;;;2.70;99.90;;;;;;6213902;23;20031;-94
2021/01/22 05:44:24;;;;;;;10.55;2.72;;;2.70;99.90;;;;;;6213880;23;20005;-94
2021/01/22 05:47:03;;;;;;;9.20;3.22;;;2.80;99.90;;;;;;6213872;23;20090;-93
2021/01/22 05:49:29;;;;;;;19.20;3.97;;;2.80;99.90;;;;;;6214237;23;20017;-95
2021/01/22 05:51:54;;;;;;;17.67;3.92;;;2.80;99.90;;;;;;6213903;23;20012;-95
2021/01/22 05:54:36;;;;;;;8.93;3.25;;;2.80;99.90;;;;;;6214397;23;20058;-94
2021/01/22 05:57:02;;;;;;;17.27;3.05;;;2.70;99.90;;;;;;6213982;23;20076;-94
2021/01/22 05:59:28;;;;;;;10.95;3.08;;;2.80;99.90;;;;;;6214006;23;20095;-94
2021/01/22 06:01:54;;;;;;;12.52;3.00;;;2.80;99.90;;;;;;6214422;23;20008;-93
2021/01/22 06:04:21;;;;;;;10.65;3.38;;;2.70;99.90;;;;;;6214993;23;20365;-96
2021/01/22 06:06:48;;;;;;;15.45;2.67;;;2.70;99.90;;;;;;6215053;23;20035;-94
2021/01/22 06:09:31;;;;;;;13.25;3.22;;;2.70;99.90;;;;;;6214714;23;20024;-94
2021/01/22 06:12:00;;;;;;;20.98;3.80;;;2.70;99.90;;;;;;6218405;23;20009;-94
2021/01/22 06:14:27;;;;;;;16.90;3.75;;;2.70;99.90;;;;;;6227902;23;20000;-94
2021/01/22 06:16:56;;;;;;;14.65;4.18;;;2.70;99.90;;;;;;6227580;23;20009;-94
2021/01/22 06:19:24;;;;;;;18.40;4.40;;;2.70;99.90;;;;;;6220850;23;20091;-94
2021/01/22 06:22:22;;;;;;;15.80;2.90;;;2.70;99.90;;;;;;6219087;23;20004;-94
2021/01/22 06:24:49;;;;;;;18.52;3.28;;;2.70;99.90;;;;;;6216556;23;20005;-94
2021/01/22 06:27:16;;;;;;;10.00;2.65;;;2.60;99.90;;;;;;6217826;23;20011;-94
2021/01/22 06:29:46;;;;;;;14.35;3.15;;;2.70;99.90;;;;;;6213887;23;20008;-94
2021/01/22 06:32:12;;;;;;;12.75;2.38;;;2.70;99.90;;;;;;6214405;23;20058;-93
2021/01/22 06:34:39;;;;;;;12.23;2.75;;;2.60;99.90;;;;;;6213448;23;20084;-94
2021/01/22 06:37:06;;;;;;;19.90;3.35;;;2.70;99.90;;;;;;6213718;23;20032;-94
2021/01/22 06:39:32;;;;;;;5.97;1.90;;;2.70;99.90;;;;;;6213802;23;20009;-93
2021/01/22 06:42:01;;;;;;;13.27;2.13;;;2.70;99.90;;;;;;6214282;23;20375;-94
2021/01/22 06:44:27;;;;;;;9.50;2.83;;;2.60;99.90;;;;;;6213186;23;20005;-94
2021/01/22 06:46:53;;;;;;;15.70;3.28;;;2.60;99.90;;;;;;6213131;23;20039;-94
2021/01/22 06:49:30;;;;;;;7.30;2.72;;;2.60;99.90;;;;;;6212319;23;20440;-94
2021/01/22 06:52:10;;;;;;;18.50;4.50;;;2.70;99.90;;;;;;6213306;23;20332;-95
2021/01/22 06:55:05;;;;;;;11.85;4.20;;;2.60;99.90;;;;;;6214756;23;20099;-92
2021/01/22 06:57:31;;;;;;;13.95;3.38;;;2.60;99.90;;;;;;6215154;23;19997;-94
2021/01/22 06:59:58;;;;;;;9.05;2.35;;;2.60;99.90;;;;;;6215204;23;20017;-93
2021/01/22 07:02:32;;;;;;;13.43;3.40;;;2.50;99.90;;;;;;6215316;23;20001;-94
2021/01/22 07:04:59;;;;;;;11.65;3.47;;;2.50;99.90;;;;;;6215097;23;20015;-96
2021/01/22 07:07:44;;;;;;;8.95;3.13;;;2.50;99.90;;;;;;6215197;23;20084;-93
2021/01/22 07:10:10;;;;;;;13.60;3.47;;;2.50;99.90;;;;;;6214903;23;20008;-95
2021/01/22 07:12:36;;;;;;;13.93;3.60;;;2.40;99.90;;;;;;6215530;23;20005;-94
2021/01/22 07:15:24;;;;;;;21.17;4.63;;;2.40;99.90;;;;;;6215018;23;20016;-95
2021/01/22 07:18:00;;;;;;;15.13;4.32;;;2.40;99.90;;;;;;6214968;23;20035;-95
2021/01/22 07:20:30;;;;;;;9.52;4.25;;;2.50;99.90;;;;;;6215012;23;20005;-95
2021/01/22 07:22:59;;;;;;;5.73;2.87;;;2.50;99.90;;;;;;6215559;23;20428;-95
2021/01/22 07:25:36;;;;;;;14.65;4.05;;;2.50;99.90;;;;;;6215305;23;20695;-93
2021/01/22 07:28:11;;;;;;;14.23;4.47;;;2.50;99.90;;;;;;6214489;23;20009;-95
2021/01/22 07:30:40;;;;;;;15.35;5.50;;;2.50;99.90;;;;;;6215133;23;20012;-95
2021/01/22 07:33:36;;;;;;;11.18;4.15;;;2.50;99.90;;;;;;6214076;23;20096;-94
2021/01/22 07:36:14;;;;;;;15.07;3.80;;;2.50;99.90;;;;;;6213665;23;20008;-94
2021/01/22 07:38:41;;;;;;;12.57;4.07;;;2.50;99.90;;;;;;6214990;23;20012;-95
2021/01/22 07:41:11;;;;;;;13.73;4.05;;;2.50;99.90;;;;;;6218564;23;20017;-95
2021/01/22 07:43:36;;;;;;;12.93;3.15;;;2.60;99.90;;;;;;6221038;23;20056;-96
2021/01/22 07:46:10;;;;;;;4.10;1.92;;;2.50;99.90;;;;;;6219234;23;20013;-95
2021/01/22 07:48:37;;;;;;;13.13;4.30;;;2.60;99.90;;;;;;6217089;23;20080;-94
2021/01/22 08:06:49;;;;;;;11.23;3.20;;;2.60;99.90;;;;;;5132551;27;20433;-93
2021/01/22 08:09:17;;;;;;;11.00;2.92;;;2.80;99.90;;;;;;5130586;28;20035;-95
2021/01/22 08:11:44;;;;;;;12.85;2.83;;;2.80;99.90;;;;;;5130043;27;20026;-94
2021/01/22 08:14:10;;;;;;;9.48;1.77;;;2.80;99.90;;;;;;5129355;28;20474;-93
2021/01/22 08:16:37;;;;;;;10.82;3.20;;;2.80;99.90;;;;;;5128430;27;20031;-94
2021/01/22 08:19:09;;;;;;;13.43;2.72;;;2.70;99.90;;;;;;5129161;28;20069;-95
2021/01/22 08:21:38;;;;;;;14.60;2.60;;;2.80;99.90;;;;;;5128584;27;20028;-92
2021/01/22 08:24:09;;;;;;;11.30;2.35;;;2.80;99.90;;;;;;5129331;27;20110;-96
2021/01/22 08:26:36;;;;;;;9.10;2.80;;;2.80;99.90;;;;;;5129460;28;20035;-95
2021/01/22 08:29:02;;;;;;;11.07;2.75;;;2.80;99.90;;;;;;5128870;27;20459;-94
2021/01/22 08:31:28;;;;;;;9.52;3.00;;;2.80;99.90;;;;;;5129380;28;20035;-94
2021/01/22 08:33:55;;;;;;;9.75;3.03;;;2.80;99.90;;;;;;5129253;27;20362;-93
2021/01/22 08:36:21;;;;;;;15.57;2.97;;;2.80;99.90;;;;;;5129891;27;20137;-94
2021/01/22 08:39:16;;;;;;;9.23;2.58;;;2.80;99.90;;;;;;5137192;27;20043;-95
2021/01/22 08:41:42;;;;;;;17.40;4.15;;;2.80;99.90;;;;;;5141337;27;20031;-95
2021/01/22 08:44:13;;;;;;;9.93;2.25;;;2.80;99.90;;;;;;5136222;27;20031;-96
2021/01/22 08:46:49;;;;;;;16.33;3.58;;;2.80;99.90;;;;;;5136748;27;20048;-96
2021/01/22 08:49:17;;;;;;;10.23;2.03;;;2.80;99.90;;;;;;5141685;28;20506;-96
2021/01/22 08:51:49;;;;;;;8.93;1.83;;;2.80;99.90;;;;;;5126774;28;20051;-96
2021/01/22 08:54:17;;;;;;;7.03;1.77;;;2.80;99.90;;;;;;5140159;27;20030;-96
2021/01/22 08:57:08;;;;;;;6.43;2.22;;;2.80;99.90;;;;;;5137856;28;20035;-95
2021/01/22 09:00:05;;;;;;;17.13;1.67;;;2.80;99.90;;;;;;5142584;27;20035;-96
2021/01/22 09:02:38;;;;;;;5.60;1.45;;;2.80;99.90;;;;;;5142823;27;20042;-96
2021/01/22 09:05:13;;;;;;;9.82;1.92;;;2.80;99.90;;;;;;5136965;28;20040;-95
2021/01/22 09:07:40;;;;;;;7.60;1.63;;;2.80;99.90;;;;;;5112096;28;20031;-96
2021/01/22 09:10:25;;;;;;;17.17;2.33;;;2.90;99.90;;;;;;5126673;28;20027;-96
2021/01/22 09:13:09;;;;;;;8.07;1.33;;;2.90;99.90;;;;;;5131113;28;20028;-95
2021/01/22 09:15:42;;;;;;;9.43;2.80;;;3.00;99.90;;;;;;5130755;27;20024;-96
2021/01/22 09:18:25;;;;;;;10.35;1.63;;;2.90;99.90;;;;;;5127076;28;20162;-94
2021/01/22 09:23:59;;;;;;;17.85;2.03;;;3.10;99.90;;;;;;5121663;28;20035;-95
2021/01/22 09:26:28;;;;;;;7.55;1.40;;;3.10;99.90;;;;;;5113954;28;20513;-96
2021/01/22 09:28:59;;;;;;;8.73;1.73;;;3.20;99.90;;;;;;5128885;28;20023;-95
2021/01/22 09:31:28;;;;;;;;;;;3.20;99.90;;;;;;5130959;28;20039;-96
2021/01/22 09:33:54;;;;;;;11.80;2.13;;;3.40;99.90;;;;;;5127034;28;19930;-95
2021/01/22 09:36:22;;;;;;;15.45;2.30;;;3.50;99.90;;;;;;5119740;28;20032;-95
2021/01/22 09:38:49;;;;;;;12.75;1.55;;;3.50;99.90;;;;;;5120336;28;20024;-95
2021/01/22 09:41:15;;;;;;;8.70;1.95;;;3.60;99.90;;;;;;5126523;28;20023;-95
2021/01/22 09:43:41;;;;;;;9.82;1.80;;;3.60;99.90;;;;;;5124724;28;20020;-96
2021/01/22 09:46:07;;;;;;;7.95;2.15;;;3.70;99.90;;;;;;5125184;28;20501;-95
2021/01/22 09:48:59;;;;;;;5.93;1.38;;;3.80;99.90;;;;;;5123608;28;20095;-95
2021/01/22 09:51:29;;;;;;;6.15;1.60;;;3.90;99.90;;;;;;5125465;28;20042;-95
2021/01/22 09:54:14;;;;;;;13.45;1.83;;;4.10;99.90;;;;;;5129918;28;20119;-96
2021/01/22 09:56:45;;;;;;;15.30;1.80;;;4.20;99.90;;;;;;5106819;28;20380;-95
2021/01/22 09:59:10;;;;;;;9.50;2.40;;;4.40;99.90;;;;;;5111566;28;20024;-96
2021/01/22 10:01:37;;;;;;;10.30;1.60;;;4.60;99.90;;;;;;5121869;28;20031;-95
2021/01/22 10:04:03;;;;;;;5.68;1.42;;;4.70;99.90;;;;;;5119622;28;20027;-94
2021/01/22 10:06:30;;;;;;;11.23;1.40;;;4.80;99.90;;;;;;5112659;28;20093;-96
2021/01/22 10:08:56;;;;;;;15.10;2.22;;;5.00;99.90;;;;;;5117489;28;20027;-94
2021/01/22 10:11:22;;;;;;;7.05;1.52;;;5.20;99.90;;;;;;5113957;28;20027;-95
2021/01/22 10:13:55;;;;;;;7.93;2.10;;;5.30;99.90;;;;;;5115323;28;20035;-94
2021/01/22 10:16:22;;;;;;;13.20;2.20;;;5.40;99.90;;;;;;5113906;28;20100;-95
2021/01/22 10:18:49;;;;;;;11.85;1.88;;;5.60;99.90;;;;;;5114253;28;20024;-94
2021/01/22 10:21:15;;;;;;;12.95;1.98;;;5.80;99.90;;;;;;5116725;28;20020;-95
2021/01/22 10:23:40;;;;;;;5.15;1.30;;;5.90;99.90;;;;;;5115417;28;20594;-95
2021/01/22 10:26:06;;;;;;;10.32;1.50;;;6.00;99.90;;;;;;5116157;28;20058;-95
2021/01/22 10:28:32;;;;;;;4.88;1.27;;;6.10;99.90;;;;;;5114120;28;20027;-95
2021/01/22 10:30:58;;;;;;;13.18;1.80;;;6.30;99.90;;;;;;5113690;28;20026;-95
2021/01/22 10:33:23;;;;;;;7.13;1.40;;;6.40;99.90;;;;;;5114024;28;20020;-96
2021/01/22 10:35:49;;;;;;;10.32;1.85;;;6.60;99.90;;;;;;5106618;28;20016;-95
2021/01/22 10:38:16;;;;;;;10.77;1.95;;;6.80;99.90;;;;;;5113193;28;20454;-94
2021/01/22 10:40:42;;;;;;;7.88;1.55;;;6.80;99.90;;;;;;5110563;28;20019;-94
2021/01/22 10:43:08;;;;;;;9.60;1.90;;;6.90;99.90;;;;;;5117443;28;20104;-94
2021/01/22 10:45:33;;;;;;;11.02;1.70;;;7.00;99.90;;;;;;5113085;28;20043;-95
2021/01/22 10:47:59;;;;;;;7.68;1.45;;;7.10;99.90;;;;;;5107360;28;20016;-94
2021/01/22 10:50:25;;;;;;;16.60;2.92;;;7.30;99.50;;;;;;5091475;28;20036;-94
2021/01/22 10:52:50;;;;;;;10.25;1.52;;;7.40;98.40;;;;;;5114785;28;20432;-96
2021/01/22 10:55:16;;;;;;;11.63;2.38;;;7.40;97.00;;;;;;5110321;28;20488;-94
2021/01/22 10:57:42;;;;;;;11.80;2.22;;;7.40;96.50;;;;;;5097376;28;20032;-94
2021/01/22 11:00:08;;;;;;;13.30;2.17;;;7.30;96.10;;;;;;5092238;28;20028;-95
2021/01/22 11:02:33;;;;;;;6.03;2.10;;;7.30;96.50;;;;;;5092543;28;20024;-95
2021/01/22 11:04:59;;;;;;;9.65;1.80;;;7.40;96.40;;;;;;5092296;28;20487;-95
2021/01/22 11:07:25;;;;;;;12.70;2.00;;;7.60;96.70;;;;;;5092782;28;20059;-95
2021/01/22 11:09:51;;;;;;;5.05;1.55;;;7.70;95.40;;;;;;5093601;28;20487;-95
2021/01/22 11:12:16;;;;;;;6.78;1.55;;;7.80;95.00;;;;;;5092867;28;20075;-94
2021/01/22 11:14:46;;;;;;;10.07;1.85;;;7.80;95.10;;;;;;5092724;28;20028;-94
2021/01/22 11:17:12;;;;;;;11.50;1.97;;;8.00;95.20;;;;;;5093177;28;20024;-95
2021/01/22 11:19:38;;;;;;;3.88;1.38;;;8.20;95.00;;;;;;5092735;28;20783;-94
2021/01/22 11:22:03;;;;;;;5.38;1.23;;;8.30;94.40;;;;;;5094143;28;20028;-94
2021/01/22 11:24:29;;;;;;;4.43;1.35;;;8.30;93.80;;;;;;5093381;28;20193;-94
2021/01/22 11:26:55;;;;;;;11.40;1.60;;;8.40;93.40;;;;;;5092661;28;20578;-94
2021/01/22 11:29:20;;;;;;;13.63;3.40;;;8.40;93.10;;;;;;5092292;28;20588;-94
2021/01/22 11:31:46;;;;;;;7.72;1.50;;;8.40;93.10;;;;;;5092946;28;20032;-94
2021/01/22 11:34:12;;;;;;;9.13;1.90;;;8.60;92.90;;;;;;5110408;28;20028;-94
2021/01/22 11:36:37;;;;;;;12.00;3.15;;;8.80;93.00;;;;;;5112550;28;20091;-94
2021/01/22 11:39:03;;;;;;;16.70;2.30;;;9.10;92.60;;;;;;5113921;28;20466;-95
2021/01/22 11:41:29;;;;;;;9.32;1.92;;;9.40;92.30;;;;;;5112668;28;20076;-94
2021/01/22 11:43:55;;;;;;;8.57;1.60;;;9.50;91.50;;;;;;5112456;28;20031;-95
2021/01/22 11:46:21;;;;;;;13.68;1.60;;;9.60;90.80;;;;;;5112450;28;20093;-94
2021/01/22 11:48:48;;;;;;;7.93;1.65;;;9.60;90.60;;;;;;5112294;28;20037;-95
2021/01/22 11:51:15;;;;;;;12.35;2.25;;;9.30;90.20;;;;;;5112909;28;20032;-94
2021/01/22 11:53:42;;;;;;;17.17;2.05;;;9.00;90.60;;;;;;5114371;28;20016;-94
2021/01/22 11:56:08;;;;;;;10.10;2.10;;;8.70;91.00;;;;;;5113383;28;20027;-96
2021/01/22 11:58:33;;;;;;;13.02;2.47;;;8.20;91.30;;;;;;5112892;28;20024;-94
2021/01/22 12:00:59;;;;;;;9.98;2.17;;;7.80;92.30;;;;;;5113983;28;20502;-95
2021/01/22 12:03:25;;;;;;;11.70;1.65;;;7.40;93.20;;;;;;5112182;28;20028;-95
2021/01/22 12:05:51;;;;;;;10.25;2.38;;;7.10;94.00;;;;;;5112726;28;20044;-95
2021/01/22 12:08:17;;;;;;;12.45;2.53;;;6.80;94.70;;;;;;5107266;28;20038;-94
2021/01/22 12:10:42;;;;;;;8.40;1.90;;;6.60;95.30;;;;;;5103187;28;20027;-95
2021/01/22 12:13:08;;;;;;;13.00;2.33;;;6.40;95.90;;;;;;5114116;28;20077;-94
2021/01/22 12:15:34;;;;;;;8.07;1.85;;;6.30;96.50;;;;;;5098276;28;20024;-94
2021/01/22 12:18:00;;;;;;;14.13;3.08;;;6.20;97.00;;;;;;5094646;28;20042;-95
2021/01/22 12:20:26;;;;;;;16.58;1.95;;;6.30;97.30;;;;;;5102231;28;20046;-95
2021/01/22 12:22:52;;;;;;;7.63;2.35;;;6.30;97.50;;;;;;5108922;28;20377;-95
2021/01/22 12:25:18;;;;;;;11.32;2.00;;;6.40;97.50;;;;;;5097023;28;20039;-94
2021/01/22 12:27:43;;;;;;;9.02;2.10;;;6.50;97.50;;;;;;5106662;28;20054;-94
2021/01/22 12:30:10;;;;;;;7.80;2.25;;;6.70;97.40;;;;;;5109108;28;20396;-95
2021/01/22 12:32:44;;;;;;;8.80;1.85;;;7.10;97.30;;;;;;5108179;28;20032;-93
2021/01/22 12:35:10;;;;;;;14.18;2.47;;;7.50;97.10;;;;;;5100753;28;20032;-92
2021/01/22 12:37:36;;;;;;;12.57;2.00;;;8.00;96.10;;;;;;5106417;28;20028;-94
2021/01/22 12:40:02;;;;;;;13.93;2.60;;;8.40;95.20;;;;;;5109800;28;20030;-94
2021/01/22 12:42:28;;;;;;;14.90;1.75;;;8.60;94.40;;;;;;5101955;28;20024;-93
2021/01/22 12:44:53;;;;;;;10.52;1.98;;;8.80;93.40;;;;;;5115157;28;20038;-94
2021/01/22 12:47:19;;;;;;;12.80;2.17;;;9.00;93.20;;;;;;5116099;28;20072;-94
2021/01/22 12:49:45;;;;;;;9.05;2.58;;;9.50;92.70;;;;;;5113839;28;20478;-94
2021/01/22 12:52:10;;;;;;;10.88;1.83;;;9.90;91.20;;;;;;5115512;28;20028;-94
2021/01/22 12:54:36;;;;;;;10.07;2.00;;;10.30;90.10;;;;;;5110043;28;20037;-95
2021/01/22 12:57:02;;;;;;;9.93;2.00;;;10.60;89.30;;;;;;5117511;28;20066;-94
2021/01/22 12:59:27;;;;;;;8.45;1.90;;;10.90;86.20;;;;;;5126389;28;20107;-93
2021/01/22 13:01:53;;;;;;;7.82;2.58;;;10.90;85.30;;;;;;5126537;28;20027;-93
2021/01/22 13:04:19;;;;;;;11.43;2.13;;;10.80;84.90;;;;;;5123292;28;20032;-93
2021/01/22 13:06:45;;;;;;;6.13;1.73;;;10.50;83.60;;;;;;5120604;28;20054;-94
2021/01/22 13:09:11;;;;;;;12.75;1.95;;;10.00;83.70;;;;;;5121864;28;20032;-94
2021/01/22 13:11:37;;;;;;;9.60;1.92;;;9.60;83.60;;;;;;5118159;28;20050;-94
2021/01/22 13:14:02;;;;;;;12.43;2.00;;;9.40;85.10;;;;;;5120045;28;20569;-94
2021/01/22 13:16:28;;;;;;;11.48;2.03;;;9.50;86.00;;;;;;5118687;28;20015;-94